createdAt,value
2023-05-10T00:02:03.879Z,21.45
2023-05-10T00:04:30.815Z,21.46
2023-05-10T00:06:57.773Z,21.47
2023-05-10T00:09:24.884Z,21.45
2023-05-10T00:11:51.867Z,21.42
2023-05-10T00:14:19.424Z,21.43
2023-05-10T00:16:46.607Z,21.44
2023-05-10T00:19:13.581Z,21.41
2023-05-10T00:21:40.709Z,21.38
2023-05-10T00:24:11.005Z,21.43
2023-05-10T00:26:37.987Z,21.43
2023-05-10T00:29:05.109Z,21.45
2023-05-10T00:31:32.135Z,21.44
2023-05-10T00:33:59.125Z,21.47
2023-05-10T00:36:26.136Z,21.44
2023-05-10T00:38:53.048Z,21.43
2023-05-10T00:41:20.134Z,21.45
2023-05-10T00:43:47.866Z,21.45
2023-05-10T00:46:16.961Z,21.45
2023-05-10T00:48:45.705Z,21.43
2023-05-10T00:51:12.687Z,21.43
2023-05-10T00:53:39.780Z,21.45
2023-05-10T00:56:07.460Z,21.43
2023-05-10T00:58:34.814Z,21.40
2023-05-10T01:01:02.688Z,21.42
2023-05-10T01:03:30.339Z,21.41
2023-05-10T01:05:57.410Z,21.41
2023-05-10T01:08:26.170Z,21.40
2023-05-10T01:10:53.699Z,21.37
2023-05-10T01:13:28.972Z,21.33
2023-05-10T01:15:56.845Z,21.25
2023-05-10T01:18:24.459Z,21.21
2023-05-10T01:21:09.115Z,21.25
2023-05-10T01:24:15.389Z,21.20
2023-05-10T01:27:03.332Z,21.11
2023-05-10T01:30:10.016Z,21.05
2023-05-10T01:33:02.946Z,21.03
2023-05-10T01:35:42.939Z,21.02
2023-05-10T01:38:09.934Z,21.01
2023-05-10T01:40:43.764Z,20.98
2023-05-10T01:43:19.700Z,20.93
2023-05-10T01:46:01.062Z,20.96
2023-05-10T01:48:31.239Z,20.92
2023-05-10T01:50:59.357Z,20.92
2023-05-10T01:53:28.405Z,20.94
2023-05-10T01:55:57.816Z,20.89
2023-05-10T01:58:29.618Z,20.90
2023-05-10T02:00:59.394Z,20.91
2023-05-10T02:03:28.458Z,20.91
2023-05-10T02:05:57.174Z,20.93
2023-05-10T02:08:25.585Z,20.94
2023-05-10T02:10:55.223Z,20.92
2023-05-10T02:13:24.537Z,20.90
2023-05-10T02:15:54.304Z,20.88
2023-05-10T02:18:23.400Z,20.86
2023-05-10T02:20:52.114Z,20.88
2023-05-10T02:23:20.072Z,20.86
2023-05-10T02:25:49.368Z,20.89
2023-05-10T02:28:18.362Z,20.93
2023-05-10T02:30:45.779Z,20.88
2023-05-10T02:33:13.341Z,20.91
2023-05-10T02:35:41.436Z,20.90
2023-05-10T02:38:10.364Z,20.89
2023-05-10T02:40:38.612Z,20.87
2023-05-10T02:43:08.070Z,20.86
2023-05-10T02:45:37.543Z,20.85
2023-05-10T02:48:05.135Z,20.90
2023-05-10T02:50:34.288Z,20.92
2023-05-10T02:53:04.250Z,20.93
2023-05-10T02:55:39.124Z,20.95
2023-05-10T02:58:06.545Z,20.88
2023-05-10T03:00:33.813Z,20.87
2023-05-10T03:03:01.742Z,20.90
2023-05-10T03:05:29.057Z,20.89
2023-05-10T03:07:59.253Z,20.91
2023-05-10T03:10:30.458Z,20.85
2023-05-10T03:13:29.357Z,20.91
2023-05-10T03:16:18.160Z,20.88
2023-05-10T03:19:01.160Z,20.86
2023-05-10T03:21:31.055Z,20.89
2023-05-10T03:24:08.236Z,20.91
2023-05-10T03:26:38.374Z,20.93
2023-05-10T03:29:12.781Z,20.95
2023-05-10T03:31:40.416Z,20.96
2023-05-10T03:34:08.100Z,20.95
2023-05-10T03:36:35.538Z,20.93
2023-05-10T03:39:02.697Z,20.92
2023-05-10T03:41:30.400Z,20.94
2023-05-10T03:43:57.423Z,20.88
2023-05-10T03:46:24.386Z,20.90
2023-05-10T03:48:51.693Z,20.92
2023-05-10T03:51:19.040Z,20.90
2023-05-10T03:53:46.020Z,20.88
2023-05-10T03:56:13.294Z,20.83
2023-05-10T03:58:40.308Z,20.80
2023-05-10T04:01:07.472Z,20.84
2023-05-10T04:03:36.368Z,20.81
2023-05-10T04:06:04.109Z,20.83
2023-05-10T04:08:31.713Z,20.85
2023-05-10T04:11:08.718Z,20.86
2023-05-10T04:13:36.090Z,20.83
2023-05-10T04:16:03.420Z,20.84
2023-05-10T04:18:30.482Z,20.86
2023-05-10T04:20:57.364Z,20.83
2023-05-10T04:23:24.373Z,20.88
2023-05-10T04:25:51.420Z,20.94
2023-05-10T04:28:18.303Z,20.93
2023-05-10T04:30:45.259Z,20.93
2023-05-10T04:33:12.279Z,20.93
2023-05-10T04:35:41.130Z,20.96
2023-05-10T04:38:08.202Z,21.00
2023-05-10T04:40:35.512Z,21.05
2023-05-10T04:43:02.545Z,21.06
2023-05-10T04:45:29.486Z,21.05
2023-05-10T04:47:56.507Z,21.05
2023-05-10T04:50:23.454Z,21.03
2023-05-10T04:52:50.421Z,21.01
2023-05-10T04:55:17.334Z,21.00
2023-05-10T04:57:44.366Z,20.93
2023-05-10T05:00:12.127Z,20.91
2023-05-10T05:02:39.304Z,20.92
2023-05-10T05:05:06.868Z,20.87
2023-05-10T05:07:34.376Z,20.85
2023-05-10T05:10:01.247Z,20.72
2023-05-10T05:12:28.098Z,20.74
2023-05-10T05:14:55.096Z,20.74
2023-05-10T05:17:22.017Z,20.68
2023-05-10T05:19:49.057Z,20.67
2023-05-10T05:22:17.246Z,20.67
2023-05-10T05:24:46.088Z,20.58
2023-05-10T05:27:13.009Z,20.60
2023-05-10T05:29:40.417Z,20.56
2023-05-10T05:32:09.534Z,20.55
2023-05-10T05:34:36.747Z,20.60
2023-05-10T05:37:03.695Z,20.52
2023-05-10T05:39:30.782Z,20.57
2023-05-10T05:41:57.791Z,20.57
2023-05-10T05:44:24.905Z,20.59
2023-05-10T05:46:51.802Z,20.63
2023-05-10T05:49:18.813Z,20.67
2023-05-10T05:51:46.603Z,20.75
2023-05-10T05:54:13.588Z,20.79
2023-05-10T05:56:40.698Z,20.87
2023-05-10T05:59:07.739Z,20.93
2023-05-10T06:01:35.012Z,21.12
2023-05-10T06:04:02.147Z,21.21
2023-05-10T06:06:29.332Z,21.38
2023-05-10T06:08:56.254Z,21.50
2023-05-10T06:11:23.491Z,21.65
2023-05-10T06:13:50.677Z,21.83
2023-05-10T06:16:17.853Z,21.91
2023-05-10T06:18:44.824Z,22.00
2023-05-10T06:21:11.823Z,22.15
2023-05-10T06:23:38.796Z,22.29
2023-05-10T06:26:05.737Z,22.44
2023-05-10T06:28:33.428Z,22.45
2023-05-10T06:31:01.345Z,22.59
2023-05-10T06:33:28.696Z,22.61
2023-05-10T06:35:55.637Z,22.74
2023-05-10T06:38:23.063Z,22.86
2023-05-10T06:40:50.456Z,23.01
2023-05-10T06:43:17.914Z,23.11
2023-05-10T06:45:44.957Z,23.26
2023-05-10T06:48:12.041Z,23.43
2023-05-10T06:50:42.105Z,23.67
2023-05-10T06:53:09.413Z,24.00
2023-05-10T06:55:36.606Z,24.36
2023-05-10T06:58:03.561Z,24.58
2023-05-10T07:00:30.544Z,24.29
2023-05-10T07:02:57.604Z,24.05
2023-05-10T07:05:24.733Z,23.74
2023-05-10T07:07:52.742Z,23.54
2023-05-10T07:10:19.810Z,23.22
2023-05-10T07:12:46.879Z,23.11
2023-05-10T07:15:13.931Z,23.03
2023-05-10T07:17:43.268Z,22.99
2023-05-10T07:20:12.265Z,22.93
2023-05-10T07:22:39.329Z,22.90
2023-05-10T07:25:06.905Z,22.75
2023-05-10T07:27:33.828Z,22.67
2023-05-10T07:30:01.667Z,22.65
2023-05-10T07:32:28.732Z,22.51
2023-05-10T07:34:55.764Z,22.50
2023-05-10T07:37:22.711Z,22.45
2023-05-10T07:39:49.764Z,22.47
2023-05-10T07:42:16.628Z,22.52
2023-05-10T07:44:44.395Z,22.52
2023-05-10T07:47:12.082Z,22.60
2023-05-10T07:49:39.405Z,22.60
2023-05-10T07:52:06.438Z,22.59
2023-05-10T07:54:33.657Z,22.70
2023-05-10T07:57:01.295Z,22.79
2023-05-10T07:59:28.293Z,22.83
2023-05-10T08:01:55.325Z,22.79
2023-05-10T08:04:22.404Z,22.84
2023-05-10T08:06:49.371Z,22.87
2023-05-10T08:09:17.188Z,22.78
2023-05-10T08:11:44.131Z,22.82
2023-05-10T08:14:11.150Z,22.88
2023-05-10T08:16:38.192Z,22.88
2023-05-10T08:19:06.404Z,23.00
2023-05-10T08:21:33.450Z,23.16
2023-05-10T08:24:00.373Z,23.45
2023-05-10T08:26:27.573Z,23.64
2023-05-10T08:28:54.553Z,23.66
2023-05-10T08:31:21.474Z,23.77
2023-05-10T08:33:48.514Z,23.71
2023-05-10T08:36:20.753Z,23.74
2023-05-10T08:38:48.387Z,23.75
2023-05-10T08:41:16.123Z,23.45
2023-05-10T08:43:47.398Z,23.44
2023-05-10T08:46:21.240Z,23.48
2023-05-10T08:48:49.837Z,23.58
2023-05-10T08:51:19.995Z,23.55
2023-05-10T08:53:47.213Z,23.32
2023-05-10T08:56:14.261Z,22.97
2023-05-10T08:58:41.317Z,22.91
2023-05-10T09:01:09.947Z,22.77
2023-05-10T09:03:39.832Z,22.51
2023-05-10T09:06:08.026Z,22.47
2023-05-10T09:08:35.491Z,22.46
2023-05-10T09:11:02.858Z,22.29
2023-05-10T09:13:30.017Z,22.19
2023-05-10T09:15:58.844Z,22.06
2023-05-10T09:18:29.450Z,22.21
2023-05-10T09:20:56.419Z,22.10
2023-05-10T09:23:24.096Z,22.14
2023-05-10T09:26:04.934Z,21.56
2023-05-10T09:28:50.992Z,21.44
2023-05-10T09:31:18.505Z,20.97
2023-05-10T09:33:47.377Z,20.87
2023-05-10T09:36:15.202Z,20.82
2023-05-10T09:38:55.920Z,20.88
2023-05-10T09:41:24.519Z,20.75
2023-05-10T09:43:56.243Z,20.81
2023-05-10T09:46:27.055Z,20.94
2023-05-10T09:48:54.061Z,20.76
2023-05-10T09:51:21.931Z,20.59
2023-05-10T09:53:49.863Z,20.16
2023-05-10T09:56:34.898Z,20.55
2023-05-10T09:59:05.105Z,20.34
2023-05-10T10:01:33.002Z,20.15
2023-05-10T10:04:00.228Z,20.06
2023-05-10T10:06:30.410Z,20.22
2023-05-10T10:08:57.841Z,20.26
2023-05-10T10:11:25.338Z,20.22
2023-05-10T10:13:52.700Z,20.34
2023-05-10T10:16:19.737Z,20.12
2023-05-10T10:18:47.077Z,20.25
2023-05-10T10:21:16.514Z,20.27
2023-05-10T10:23:44.612Z,20.11
2023-05-10T10:26:12.408Z,20.21
2023-05-10T10:28:57.916Z,20.21
2023-05-10T10:31:33.556Z,20.10
2023-05-10T10:34:21.090Z,20.10
2023-05-10T10:36:48.535Z,19.90
2023-05-10T10:39:17.048Z,19.90
2023-05-10T10:41:57.926Z,19.85
2023-05-10T10:44:26.324Z,19.70
2023-05-10T10:47:24.470Z,19.55
2023-05-10T10:50:03.294Z,19.34
2023-05-10T10:52:38.057Z,19.51
2023-05-10T10:55:07.787Z,19.68
2023-05-10T10:57:50.033Z,19.83
2023-05-10T11:00:22.829Z,19.89
2023-05-10T11:02:55.464Z,19.82
2023-05-10T11:05:42.159Z,19.83
2023-05-10T11:08:12.318Z,20.00
2023-05-10T11:10:40.368Z,19.92
2023-05-10T11:13:09.481Z,19.99
2023-05-10T11:15:38.281Z,20.09
2023-05-10T11:18:28.123Z,20.20
2023-05-10T11:21:06.523Z,20.28
2023-05-10T11:23:49.336Z,20.31
2023-05-10T11:26:16.544Z,20.34
2023-05-10T11:28:50.196Z,20.33
2023-05-10T11:31:21.483Z,20.37
2023-05-10T11:33:48.612Z,20.31
2023-05-10T11:36:27.221Z,20.47
2023-05-10T11:38:55.401Z,20.38
2023-05-10T11:41:24.376Z,20.42
2023-05-10T11:43:53.068Z,20.37
2023-05-10T11:46:22.030Z,20.32
2023-05-10T11:48:54.633Z,20.11
2023-05-10T11:51:26.270Z,20.19
2023-05-10T11:53:58.159Z,20.34
2023-05-10T11:56:27.335Z,20.25
2023-05-10T11:58:56.879Z,20.22
2023-05-10T12:01:25.461Z,20.18
2023-05-10T12:03:54.405Z,20.17
2023-05-10T12:06:22.309Z,20.17
2023-05-10T12:08:53.680Z,20.21
2023-05-10T12:11:22.816Z,20.22
2023-05-10T12:13:50.988Z,20.41
2023-05-10T12:16:22.764Z,20.47
2023-05-10T12:18:52.175Z,20.50
2023-05-10T12:21:21.194Z,20.64
2023-05-10T12:23:51.856Z,20.70
2023-05-10T12:26:19.062Z,20.75
2023-05-10T12:28:45.937Z,20.83
2023-05-10T12:31:14.713Z,20.85
2023-05-10T12:33:44.642Z,20.77
2023-05-10T12:36:13.828Z,20.67
2023-05-10T12:38:50.974Z,20.61
2023-05-10T12:41:19.146Z,20.57
2023-05-10T12:43:46.652Z,20.45
2023-05-10T12:46:16.350Z,20.28
2023-05-10T12:48:44.372Z,20.15
2023-05-10T12:51:13.903Z,20.24
2023-05-10T12:53:43.699Z,20.30
2023-05-10T12:56:12.217Z,20.15
2023-05-10T12:58:39.756Z,20.13
2023-05-10T13:01:07.102Z,19.95
2023-05-10T13:03:34.193Z,19.99
2023-05-10T13:06:01.289Z,19.89
2023-05-10T13:08:29.396Z,19.94
2023-05-10T13:10:56.532Z,19.90
2023-05-10T13:13:23.463Z,19.82
2023-05-10T13:15:50.335Z,19.80
2023-05-10T13:18:17.292Z,19.89
2023-05-10T13:20:45.517Z,19.89
2023-05-10T13:23:12.618Z,20.06
2023-05-10T13:25:40.147Z,20.02
2023-05-10T13:28:07.071Z,20.07
2023-05-10T13:30:34.413Z,20.14
2023-05-10T13:33:01.524Z,20.15
2023-05-10T13:35:28.709Z,20.17
2023-05-10T13:37:58.918Z,20.23
2023-05-10T13:40:25.987Z,20.25
2023-05-10T13:42:54.043Z,20.31
2023-05-10T13:45:21.286Z,20.25
2023-05-10T13:47:48.442Z,20.25
2023-05-10T13:50:15.539Z,20.23
2023-05-10T13:52:42.446Z,20.14
2023-05-10T13:55:09.663Z,20.26
2023-05-10T13:57:37.016Z,20.39
2023-05-10T14:00:04.425Z,20.40
2023-05-10T14:02:34.894Z,20.39
2023-05-10T14:05:02.398Z,20.40
2023-05-10T14:07:29.455Z,20.53
2023-05-10T14:09:56.361Z,20.47
2023-05-10T14:12:23.241Z,20.46
2023-05-10T14:14:50.370Z,20.39
2023-05-10T14:17:17.255Z,20.29
2023-05-10T14:19:44.322Z,20.10
2023-05-10T14:22:11.318Z,20.08
2023-05-10T14:24:39.452Z,20.18
2023-05-10T14:27:07.070Z,20.25
2023-05-10T14:29:34.132Z,20.23
2023-05-10T14:32:01.250Z,20.37
2023-05-10T14:34:28.202Z,20.43
2023-05-10T14:36:55.325Z,20.53
2023-05-10T14:39:22.268Z,20.63
2023-05-10T14:41:49.799Z,20.56
2023-05-10T14:44:17.186Z,20.53
2023-05-10T14:46:44.075Z,20.55
2023-05-10T14:49:10.932Z,20.54
2023-05-10T14:51:37.996Z,20.54
2023-05-10T14:54:05.108Z,20.43
2023-05-10T14:56:32.829Z,20.42
2023-05-10T14:59:00.510Z,20.34
2023-05-10T15:01:27.964Z,20.37
2023-05-10T15:03:55.392Z,20.27
2023-05-10T15:06:32.398Z,20.24
2023-05-10T15:08:59.301Z,20.22
2023-05-10T15:11:26.321Z,20.08
2023-05-10T15:13:53.611Z,20.11
2023-05-10T15:16:20.781Z,20.04
2023-05-10T15:18:47.711Z,20.06
2023-05-10T15:21:14.658Z,20.16
2023-05-10T15:23:41.679Z,20.25
2023-05-10T15:26:08.861Z,20.30
2023-05-10T15:28:35.715Z,20.32
2023-05-10T15:31:02.652Z,20.27
2023-05-10T15:33:29.765Z,20.10
2023-05-10T15:35:56.803Z,20.13
2023-05-10T15:38:23.658Z,20.16
2023-05-10T15:40:50.576Z,20.25
2023-05-10T15:43:17.589Z,20.23
2023-05-10T15:45:44.494Z,20.14
2023-05-10T15:48:11.386Z,20.17
2023-05-10T15:50:38.415Z,20.14
2023-05-10T15:53:05.749Z,20.17
2023-05-10T15:55:32.683Z,20.23
2023-05-10T15:58:00.361Z,20.24
2023-05-10T16:00:27.397Z,20.20
2023-05-10T16:02:54.585Z,20.13
2023-05-10T16:05:22.306Z,20.20
2023-05-10T16:07:49.525Z,20.24
2023-05-10T16:10:16.590Z,20.22
2023-05-10T16:12:43.643Z,20.19
2023-05-10T16:15:10.988Z,20.05
2023-05-10T16:17:38.027Z,20.11
2023-05-10T16:20:06.126Z,20.03
2023-05-10T16:22:33.177Z,20.02
2023-05-10T16:25:00.272Z,20.02
2023-05-10T16:27:30.311Z,20.00
2023-05-10T16:29:57.482Z,19.96
2023-05-10T16:32:24.747Z,19.85
2023-05-10T16:34:53.517Z,19.92
2023-05-10T16:37:20.944Z,19.98
2023-05-10T16:39:48.295Z,20.08
2023-05-10T16:42:15.278Z,20.13
2023-05-10T16:44:42.961Z,20.09
2023-05-10T16:47:10.134Z,20.13
2023-05-10T16:49:37.445Z,20.02
2023-05-10T16:52:04.475Z,19.98
2023-05-10T16:54:31.836Z,20.07
2023-05-10T16:56:58.720Z,20.01
2023-05-10T16:59:25.645Z,20.03
2023-05-10T17:01:53.387Z,20.09
2023-05-10T17:04:20.641Z,20.12
2023-05-10T17:06:47.549Z,20.05
2023-05-10T17:09:14.539Z,20.09
2023-05-10T17:11:42.232Z,20.04
2023-05-10T17:14:10.259Z,20.03
2023-05-10T17:16:37.419Z,19.90
2023-05-10T17:19:04.595Z,20.04
2023-05-10T17:21:32.172Z,19.99
2023-05-10T17:23:59.111Z,20.04
2023-05-10T17:26:27.718Z,20.06
2023-05-10T17:28:55.136Z,20.02
2023-05-10T17:31:22.077Z,20.03
2023-05-10T17:33:49.293Z,20.07
2023-05-10T17:36:16.340Z,20.11
2023-05-10T17:38:43.590Z,20.15
2023-05-10T17:41:10.888Z,20.15
2023-05-10T17:43:37.840Z,20.16
2023-05-10T17:46:04.785Z,20.12
2023-05-10T17:48:31.938Z,20.14
2023-05-10T17:50:58.880Z,20.10
2023-05-10T17:53:25.935Z,20.07
2023-05-10T17:55:52.935Z,20.03
2023-05-10T17:58:19.916Z,19.93
2023-05-10T18:00:47.220Z,19.96
2023-05-10T18:03:14.205Z,20.03
2023-05-10T18:05:41.381Z,20.00
2023-05-10T18:08:08.793Z,20.02
2023-05-10T18:10:38.825Z,20.02
2023-05-10T18:13:08.948Z,20.04
2023-05-10T18:15:36.439Z,20.03
2023-05-10T18:18:04.727Z,20.03
2023-05-10T18:20:31.988Z,19.98
2023-05-10T18:22:59.161Z,19.96
2023-05-10T18:25:26.339Z,19.96
2023-05-10T18:27:53.406Z,19.94
2023-05-10T18:30:20.331Z,19.91
2023-05-10T18:32:47.284Z,19.98
2023-05-10T18:35:14.710Z,19.88
2023-05-10T18:37:42.572Z,19.89
2023-05-10T18:40:11.223Z,19.85
2023-05-10T18:42:38.497Z,19.84
2023-05-10T18:45:06.592Z,19.86
2023-05-10T18:47:33.584Z,19.87
2023-05-10T18:50:01.060Z,19.83
2023-05-10T18:52:28.005Z,19.85
2023-05-10T18:54:55.074Z,19.83
2023-05-10T18:57:22.346Z,19.84
2023-05-10T18:59:49.540Z,19.84
2023-05-10T19:02:16.548Z,19.83
2023-05-10T19:04:44.422Z,19.68
2023-05-10T19:07:11.549Z,19.66
2023-05-10T19:09:38.585Z,19.64
2023-05-10T19:12:05.762Z,19.71
2023-05-10T19:14:32.741Z,19.80
2023-05-10T19:17:01.638Z,19.73
2023-05-10T19:19:31.814Z,19.71
2023-05-10T19:21:59.073Z,19.67
2023-05-10T19:24:26.166Z,19.65
2023-05-10T19:26:53.772Z,19.66
2023-05-10T19:29:20.686Z,19.61
2023-05-10T19:31:48.903Z,19.68
2023-05-10T19:34:16.525Z,19.62
2023-05-10T19:36:43.842Z,19.68
2023-05-10T19:39:11.768Z,19.68
2023-05-10T19:41:38.976Z,19.69
2023-05-10T19:44:06.594Z,19.67
2023-05-10T19:46:34.362Z,19.69
2023-05-10T19:49:01.580Z,19.68
2023-05-10T19:51:28.978Z,19.62
2023-05-10T19:53:56.425Z,19.64
2023-05-10T19:56:23.998Z,19.63
2023-05-10T19:58:51.161Z,19.61
2023-05-10T20:01:18.278Z,19.62
2023-05-10T20:03:46.819Z,19.65
2023-05-10T20:06:13.859Z,19.60
2023-05-10T20:08:40.785Z,19.65
2023-05-10T20:11:07.818Z,19.62
2023-05-10T20:13:34.839Z,19.64
2023-05-10T20:16:02.614Z,19.70
2023-05-10T20:18:32.420Z,19.65
2023-05-10T20:21:00.723Z,19.67
2023-05-10T20:23:28.086Z,19.67
2023-05-10T20:25:55.352Z,19.71
2023-05-10T20:28:24.228Z,19.71
2023-05-10T20:30:54.614Z,19.73
2023-05-10T20:33:22.682Z,19.73
2023-05-10T20:35:51.599Z,19.63
2023-05-10T20:38:18.689Z,19.67
2023-05-10T20:40:46.582Z,19.67
2023-05-10T20:43:13.775Z,19.73
2023-05-10T20:45:40.764Z,19.72
2023-05-10T20:48:08.125Z,19.77
2023-05-10T20:50:35.699Z,19.79
2023-05-10T20:53:02.900Z,19.76
2023-05-10T20:55:30.244Z,19.67
2023-05-10T20:57:57.267Z,19.58
2023-05-10T21:00:24.456Z,19.64
2023-05-10T21:02:51.413Z,19.67
2023-05-10T21:05:18.956Z,19.65
2023-05-10T21:07:46.159Z,19.71
2023-05-10T21:10:13.118Z,19.75
2023-05-10T21:12:41.529Z,19.77
2023-05-10T21:15:09.274Z,19.76
2023-05-10T21:17:36.251Z,19.72
2023-05-10T21:20:03.837Z,19.74
2023-05-10T21:22:30.824Z,19.71
2023-05-10T21:24:57.997Z,19.75
2023-05-10T21:27:24.974Z,19.72
2023-05-10T21:30:42.507Z,19.76
2023-05-10T21:33:17.911Z,19.70
2023-05-10T21:35:52.966Z,19.64
2023-05-10T21:38:35.186Z,19.73
2023-05-10T21:41:02.522Z,19.62
2023-05-10T21:43:29.572Z,19.60
2023-05-10T21:45:56.620Z,19.65
2023-05-10T21:48:23.849Z,19.65
2023-05-10T21:50:50.888Z,19.67
2023-05-10T21:53:17.854Z,19.65
2023-05-10T21:55:44.904Z,19.70
2023-05-10T21:58:11.951Z,19.71
2023-05-10T22:00:39.119Z,19.71
2023-05-10T22:03:06.171Z,19.71
2023-05-10T22:05:33.284Z,19.69
2023-05-10T22:08:00.509Z,19.69
2023-05-10T22:10:27.617Z,19.70
2023-05-10T22:12:54.525Z,19.75
2023-05-10T22:15:21.896Z,19.82
2023-05-10T22:17:49.151Z,19.70
2023-05-10T22:20:16.301Z,19.64
2023-05-10T22:22:44.538Z,19.64
2023-05-10T22:25:11.590Z,19.56
2023-05-10T22:27:38.883Z,19.59
2023-05-10T22:30:07.504Z,19.62
2023-05-10T22:32:34.847Z,19.64
2023-05-10T22:35:02.006Z,19.62
2023-05-10T22:37:29.223Z,19.57
2023-05-10T22:39:56.511Z,19.58
2023-05-10T22:42:23.507Z,19.63
2023-05-10T22:44:50.671Z,19.64
2023-05-10T22:47:17.633Z,19.66
2023-05-10T22:49:44.525Z,19.66
2023-05-10T22:52:11.472Z,19.64
2023-05-10T22:54:38.389Z,19.63
2023-05-10T22:57:09.254Z,19.58
2023-05-10T22:59:36.188Z,19.65
2023-05-10T23:02:03.252Z,19.64
2023-05-10T23:04:30.332Z,19.67
2023-05-10T23:06:57.337Z,19.70
2023-05-10T23:09:24.428Z,19.74
2023-05-10T23:11:51.342Z,19.67
2023-05-10T23:14:18.398Z,19.72
2023-05-10T23:16:45.438Z,19.77
2023-05-10T23:19:15.343Z,19.80
2023-05-10T23:21:42.257Z,19.79
2023-05-10T23:24:09.335Z,19.71
2023-05-10T23:26:36.459Z,19.62
2023-05-10T23:29:03.445Z,19.67
2023-05-10T23:31:30.563Z,19.71
2023-05-10T23:33:57.554Z,19.76
2023-05-10T23:36:24.485Z,19.79
2023-05-10T23:38:51.575Z,19.83
2023-05-10T23:41:19.014Z,19.88
2023-05-10T23:43:45.947Z,19.90
2023-05-10T23:46:13.016Z,19.86
2023-05-10T23:48:40.154Z,19.82
2023-05-10T23:51:09.247Z,19.86
2023-05-10T23:53:36.590Z,19.82
2023-05-10T23:56:05.060Z,19.83
2023-05-10T23:58:32.014Z,19.78
